createdAt,value
2023-02-03T00:00:12.170Z,1026.63
2023-02-03T00:01:12.168Z,1026.63
2023-02-03T00:02:12.211Z,1026.63
2023-02-03T00:03:12.252Z,1026.64
2023-02-03T00:04:12.161Z,1026.67
2023-02-03T00:05:12.156Z,1026.65
2023-02-03T00:06:12.174Z,1026.68
2023-02-03T00:07:12.193Z,1026.67
2023-02-03T00:08:12.165Z,1026.67
2023-02-03T00:09:12.163Z,1026.67
2023-02-03T00:10:12.160Z,1026.65
2023-02-03T00:11:12.181Z,1026.62
2023-02-03T00:12:12.161Z,1026.59
2023-02-03T00:13:12.181Z,1026.64
2023-02-03T00:14:12.155Z,1026.64
2023-02-03T00:15:12.156Z,1026.61
2023-02-03T00:16:12.299Z,1026.63
2023-02-03T00:17:12.166Z,1026.6
2023-02-03T00:18:12.178Z,1026.59
2023-02-03T00:19:12.280Z,1026.55
2023-02-03T00:20:12.157Z,1026.57
2023-02-03T00:21:12.172Z,1026.55
2023-02-03T00:22:12.175Z,1026.52
2023-02-03T00:23:12.211Z,1026.53
2023-02-03T00:24:12.168Z,1026.49
2023-02-03T00:25:12.154Z,1026.45
2023-02-03T00:26:12.180Z,1026.46
2023-02-03T00:27:12.181Z,1026.45
2023-02-03T00:28:12.221Z,1026.44
2023-02-03T00:29:12.173Z,1026.44
2023-02-03T00:30:12.207Z,1026.4
2023-02-03T00:31:12.254Z,1026.41
2023-02-03T00:32:12.331Z,1026.4
2023-02-03T00:33:12.175Z,1026.33
2023-02-03T00:34:12.164Z,1026.37
2023-02-03T00:35:12.170Z,1026.37
2023-02-03T00:36:12.193Z,1026.38
2023-02-03T00:37:12.169Z,1026.4
2023-02-03T00:38:12.180Z,1026.43
2023-02-03T00:39:12.182Z,1026.42
2023-02-03T00:40:12.176Z,1026.39
2023-02-03T00:41:12.180Z,1026.39
2023-02-03T00:42:12.166Z,1026.38
2023-02-03T00:43:12.169Z,1026.38
2023-02-03T00:44:12.171Z,1026.35
2023-02-03T00:45:12.164Z,1026.39
2023-02-03T00:46:12.257Z,1026.37
2023-02-03T00:47:12.180Z,1026.31
2023-02-03T00:48:12.171Z,1026.29
2023-02-03T00:49:12.185Z,1026.26
2023-02-03T00:50:12.292Z,1026.25
2023-02-03T00:51:12.188Z,1026.24
2023-02-03T00:52:12.173Z,1026.21
2023-02-03T00:53:12.207Z,1026.19
2023-02-03T00:54:12.153Z,1026.19
2023-02-03T00:55:12.167Z,1026.18
2023-02-03T00:56:12.185Z,1026.14
2023-02-03T00:57:12.173Z,1026.15
2023-02-03T00:58:12.153Z,1026.15
2023-02-03T00:59:12.172Z,1026.1
2023-02-03T01:00:12.203Z,1026.1
2023-02-03T01:01:12.256Z,1026.06
2023-02-03T01:02:12.218Z,1026.04
2023-02-03T01:03:12.169Z,1025.99
2023-02-03T01:04:12.175Z,1026.01
2023-02-03T01:05:12.169Z,1025.99
2023-02-03T01:06:12.179Z,1025.95
2023-02-03T01:07:12.157Z,1025.95
2023-02-03T01:08:12.188Z,1025.96
2023-02-03T01:09:12.158Z,1025.96
2023-02-03T01:10:12.159Z,1025.98
2023-02-03T01:11:12.170Z,1026
2023-02-03T01:12:12.154Z,1025.94
2023-02-03T01:13:12.153Z,1025.98
2023-02-03T01:14:12.156Z,1025.96
2023-02-03T01:15:12.157Z,1025.93
2023-02-03T01:16:12.212Z,1025.95
2023-02-03T01:17:12.148Z,1025.92
2023-02-03T01:18:12.162Z,1025.92
2023-02-03T01:19:12.189Z,1025.85
2023-02-03T01:20:12.175Z,1025.83
2023-02-03T01:21:12.166Z,1025.83
2023-02-03T01:22:12.159Z,1025.78
2023-02-03T01:23:12.171Z,1025.78
2023-02-03T01:24:12.156Z,1025.71
2023-02-03T01:25:12.161Z,1025.62
2023-02-03T01:26:12.168Z,1025.59
2023-02-03T01:27:12.159Z,1025.56
2023-02-03T01:28:12.223Z,1025.5
2023-02-03T01:29:12.157Z,1025.46
2023-02-03T01:30:12.172Z,1025.48
2023-02-03T01:31:12.297Z,1025.48
2023-02-03T01:32:12.165Z,1025.44
2023-02-03T01:33:12.157Z,1025.4
2023-02-03T01:34:12.171Z,1025.46
2023-02-03T01:35:12.148Z,1025.42
2023-02-03T01:36:12.348Z,1025.42
2023-02-03T01:37:12.164Z,1025.28
2023-02-03T01:38:12.167Z,1025.21
2023-02-03T01:39:12.165Z,1025.17
2023-02-03T01:40:12.165Z,1025.13
2023-02-03T01:41:12.182Z,1025.15
2023-02-03T01:42:12.171Z,1025.16
2023-02-03T01:43:12.177Z,1025.15
2023-02-03T01:44:12.163Z,1025.14
2023-02-03T01:45:13.541Z,1025.07
2023-02-03T01:46:12.235Z,1025.02
2023-02-03T01:47:12.164Z,1024.96
2023-02-03T01:48:12.170Z,1024.96
2023-02-03T01:49:12.172Z,1024.92
2023-02-03T01:50:12.169Z,1024.89
2023-02-03T01:51:12.164Z,1024.9
2023-02-03T01:52:12.242Z,1024.89
2023-02-03T01:53:12.174Z,1024.83
2023-02-03T01:54:12.182Z,1024.8
2023-02-03T01:55:12.164Z,1024.82
2023-02-03T01:56:12.180Z,1024.79
2023-02-03T01:57:12.165Z,1024.7
2023-02-03T01:58:12.167Z,1024.61
2023-02-03T01:59:12.182Z,1024.56
2023-02-03T02:00:12.177Z,1024.52
2023-02-03T02:01:12.196Z,1024.5
2023-02-03T02:02:12.238Z,1024.46
2023-02-03T02:03:12.172Z,1024.53
2023-02-03T02:04:12.164Z,1024.59
2023-02-03T02:05:12.165Z,1024.61
2023-02-03T02:06:12.186Z,1024.6
2023-02-03T02:07:12.175Z,1024.68
2023-02-03T02:08:12.175Z,1024.68
2023-02-03T02:09:12.166Z,1024.77
2023-02-03T02:10:12.180Z,1024.75
2023-02-03T02:11:12.192Z,1024.67
2023-02-03T02:12:12.198Z,1024.68
2023-02-03T02:13:12.155Z,1024.68
2023-02-03T02:14:12.160Z,1024.66
2023-02-03T02:15:12.151Z,1024.69
2023-02-03T02:16:12.233Z,1024.65
2023-02-03T02:17:12.162Z,1024.65
2023-02-03T02:18:12.185Z,1024.63
2023-02-03T02:19:12.150Z,1024.6
2023-02-03T02:20:12.149Z,1024.55
2023-02-03T02:21:12.165Z,1024.53
2023-02-03T02:22:12.159Z,1024.51
2023-02-03T02:23:12.168Z,1024.5
2023-02-03T02:24:12.148Z,1024.49
2023-02-03T02:25:12.160Z,1024.52
2023-02-03T02:26:12.262Z,1024.49
2023-02-03T02:27:12.158Z,1024.5
2023-02-03T02:28:12.293Z,1024.47
2023-02-03T02:29:12.156Z,1024.4
2023-02-03T02:30:12.182Z,1024.43
2023-02-03T02:31:12.254Z,1024.43
2023-02-03T02:32:12.154Z,1024.35
2023-02-03T02:33:12.159Z,1024.3
2023-02-03T02:34:12.150Z,1024.36
2023-02-03T02:35:12.161Z,1024.29
2023-02-03T02:36:12.229Z,1024.27
2023-02-03T02:37:12.157Z,1024.22
2023-02-03T02:38:12.160Z,1024.19
2023-02-03T02:39:12.170Z,1024.21
2023-02-03T02:40:12.155Z,1024.19
2023-02-03T02:41:12.176Z,1024.21
2023-02-03T02:42:12.152Z,1024.17
2023-02-03T02:43:12.163Z,1024.14
2023-02-03T02:44:12.156Z,1024.14
2023-02-03T02:45:12.153Z,1024.1
2023-02-03T02:46:12.237Z,1024.11
2023-02-03T02:47:12.150Z,1024.12
2023-02-03T02:48:12.176Z,1024.13
2023-02-03T02:49:12.171Z,1024.11
2023-02-03T02:50:12.162Z,1024.09
2023-02-03T02:51:12.198Z,1024
2023-02-03T02:52:12.184Z,1024.01
2023-02-03T02:53:12.179Z,1023.99
2023-02-03T02:54:12.170Z,1023.94
2023-02-03T02:55:12.183Z,1023.88
2023-02-03T02:56:13.323Z,1023.84
2023-02-03T02:57:12.178Z,1023.8
2023-02-03T02:58:12.181Z,1023.74
2023-02-03T02:59:12.163Z,1023.72
2023-02-03T03:00:12.200Z,1023.71
2023-02-03T03:01:12.265Z,1023.71
2023-02-03T03:02:12.178Z,1023.75
2023-02-03T03:03:12.176Z,1023.73
2023-02-03T03:04:12.162Z,1023.68
2023-02-03T03:05:12.296Z,1023.72
2023-02-03T03:06:12.288Z,1023.75
2023-02-03T03:07:12.169Z,1023.75
2023-02-03T03:08:12.185Z,1023.75
2023-02-03T03:09:12.167Z,1023.74
2023-02-03T03:10:12.168Z,1023.7
2023-02-03T03:11:12.181Z,1023.65
2023-02-03T03:12:12.177Z,1023.65
2023-02-03T03:13:12.161Z,1023.59
2023-02-03T03:14:12.155Z,1023.61
2023-02-03T03:15:12.171Z,1023.57
2023-02-03T03:16:12.272Z,1023.51
2023-02-03T03:17:12.178Z,1023.48
2023-02-03T03:18:12.166Z,1023.41
2023-02-03T03:19:12.169Z,1023.43
2023-02-03T03:20:12.174Z,1023.38
2023-02-03T03:21:12.174Z,1023.3
2023-02-03T03:22:12.169Z,1023.34
2023-02-03T03:23:12.191Z,1023.35
2023-02-03T03:24:12.169Z,1023.3
2023-02-03T03:25:12.169Z,1023.34
2023-02-03T03:26:12.177Z,1023.3
2023-02-03T03:27:12.169Z,1023.28
2023-02-03T03:28:12.262Z,1023.28
2023-02-03T03:29:12.172Z,1023.27
2023-02-03T03:30:12.164Z,1023.22
2023-02-03T03:31:12.284Z,1023.23
2023-02-03T03:32:12.182Z,1023.24
2023-02-03T03:33:12.162Z,1023.22
2023-02-03T03:34:12.162Z,1023.11
2023-02-03T03:35:12.162Z,1023.14
2023-02-03T03:36:12.184Z,1023.15
2023-02-03T03:37:12.153Z,1023.17
2023-02-03T03:38:12.162Z,1023.11
2023-02-03T03:39:12.159Z,1023.07
2023-02-03T03:40:12.164Z,1023.06
2023-02-03T03:41:12.252Z,1023.13
2023-02-03T03:42:12.159Z,1023.06
2023-02-03T03:43:12.157Z,1023.01
2023-02-03T03:44:12.164Z,1023.07
2023-02-03T03:45:12.162Z,1023.03
2023-02-03T03:46:12.208Z,1023.06
2023-02-03T03:47:12.153Z,1023.07
2023-02-03T03:48:12.153Z,1023.1
2023-02-03T03:49:12.167Z,1023.08
2023-02-03T03:50:12.170Z,1023.08
2023-02-03T03:51:12.165Z,1023.05
2023-02-03T03:52:12.165Z,1023.03
2023-02-03T03:53:12.183Z,1023.08
2023-02-03T03:54:12.149Z,1023.13
2023-02-03T03:55:12.147Z,1023.07
2023-02-03T03:56:12.197Z,1022.99
2023-02-03T03:57:12.169Z,1022.98
2023-02-03T03:58:12.151Z,1023.02
2023-02-03T03:59:12.166Z,1022.98
2023-02-03T04:00:12.161Z,1022.96
2023-02-03T04:01:12.208Z,1022.95
2023-02-03T04:02:12.308Z,1022.84
2023-02-03T04:03:12.206Z,1022.79
2023-02-03T04:04:12.169Z,1022.76
2023-02-03T04:05:12.182Z,1022.76
2023-02-03T04:06:12.172Z,1022.76
2023-02-03T04:07:12.170Z,1022.73
2023-02-03T04:08:12.257Z,1022.73
2023-02-03T04:09:12.166Z,1022.57
2023-02-03T04:10:12.176Z,1022.51
2023-02-03T04:11:12.180Z,1022.64
2023-02-03T04:12:12.176Z,1022.63
2023-02-03T04:13:12.189Z,1022.65
2023-02-03T04:14:12.161Z,1022.54
2023-02-03T04:15:12.170Z,1022.56
2023-02-03T04:16:12.252Z,1022.49
2023-02-03T04:17:12.182Z,1022.54
2023-02-03T04:18:12.167Z,1022.5
2023-02-03T04:19:12.172Z,1022.44
2023-02-03T04:20:12.146Z,1022.4
2023-02-03T04:21:12.190Z,1022.3
2023-02-03T04:22:12.169Z,1022.34
2023-02-03T04:23:12.192Z,1022.36
2023-02-03T04:24:12.168Z,1022.36
2023-02-03T04:25:12.196Z,1022.36
2023-02-03T04:26:12.179Z,1022.32
2023-02-03T04:27:12.174Z,1022.2
2023-02-03T04:28:12.256Z,1022.22
2023-02-03T04:29:12.203Z,1022.17
2023-02-03T04:30:12.208Z,1022.1
2023-02-03T04:31:12.273Z,1022.1
2023-02-03T04:32:12.190Z,1022.06
2023-02-03T04:33:12.168Z,1022.09
2023-02-03T04:34:12.172Z,1022.13
2023-02-03T04:35:12.172Z,1022.06
2023-02-03T04:36:12.196Z,1022.02
2023-02-03T04:37:12.168Z,1021.99
2023-02-03T04:38:12.187Z,1022
2023-02-03T04:39:12.186Z,1022.05
2023-02-03T04:40:12.175Z,1021.97
2023-02-03T04:41:12.184Z,1022.02
2023-02-03T04:42:12.167Z,1021.89
2023-02-03T04:43:12.170Z,1021.85
2023-02-03T04:44:12.175Z,1021.89
2023-02-03T04:45:12.163Z,1021.86
2023-02-03T04:46:12.252Z,1021.86
2023-02-03T04:47:12.166Z,1021.81
2023-02-03T04:48:12.154Z,1021.85
2023-02-03T04:49:12.172Z,1021.79
2023-02-03T04:50:12.167Z,1021.78
2023-02-03T04:51:12.163Z,1021.82
2023-02-03T04:52:12.154Z,1021.86
2023-02-03T04:53:12.728Z,1021.8
2023-02-03T04:54:12.156Z,1021.75
2023-02-03T04:55:12.158Z,1021.72
2023-02-03T04:56:12.181Z,1021.64
2023-02-03T04:57:12.167Z,1021.58
2023-02-03T04:58:12.172Z,1021.57
2023-02-03T04:59:12.162Z,1021.52
2023-02-03T05:00:12.165Z,1021.54
2023-02-03T05:01:12.367Z,1021.54
2023-02-03T05:02:12.156Z,1021.45
2023-02-03T05:03:12.235Z,1021.47
2023-02-03T05:04:12.158Z,1021.41
2023-02-03T05:05:12.156Z,1021.4
2023-02-03T05:06:12.173Z,1021.51
2023-02-03T05:07:12.148Z,1021.42
2023-02-03T05:08:12.168Z,1021.42
2023-02-03T05:09:12.153Z,1021.48
2023-02-03T05:10:12.162Z,1021.53
2023-02-03T05:11:12.165Z,1021.48
2023-02-03T05:12:12.150Z,1021.57
2023-02-03T05:13:12.160Z,1021.48
2023-02-03T05:14:12.153Z,1021.49
2023-02-03T05:15:12.153Z,1021.39
2023-02-03T05:16:12.196Z,1021.42
2023-02-03T05:17:12.161Z,1021.44
2023-02-03T05:18:12.165Z,1021.35
2023-02-03T05:19:12.166Z,1021.33
2023-02-03T05:20:12.184Z,1021.35
2023-02-03T05:21:12.180Z,1021.37
2023-02-03T05:22:12.171Z,1021.26
2023-02-03T05:23:12.186Z,1021.28
2023-02-03T05:24:12.170Z,1021.27
2023-02-03T05:25:12.164Z,1021.2
2023-02-03T05:26:12.178Z,1021.01
2023-02-03T05:27:12.168Z,1021.12
2023-02-03T05:28:12.307Z,1021.14
2023-02-03T05:29:12.180Z,1021.15
2023-02-03T05:30:12.159Z,1021.12
2023-02-03T05:31:12.214Z,1021.13
2023-02-03T05:32:12.221Z,1021.12
2023-02-03T05:33:12.154Z,1021.07
2023-02-03T05:34:12.179Z,1021.09
2023-02-03T05:35:12.182Z,1021.07
2023-02-03T05:36:12.203Z,1021.05
2023-02-03T05:37:12.173Z,1020.84
2023-02-03T05:38:12.184Z,1020.88
2023-02-03T05:39:12.172Z,1020.85
2023-02-03T05:40:12.160Z,1020.86
2023-02-03T05:41:12.174Z,1020.85
2023-02-03T05:42:12.245Z,1020.79
2023-02-03T05:43:12.177Z,1020.74
2023-02-03T05:44:12.174Z,1020.77
2023-02-03T05:45:12.176Z,1020.67
2023-02-03T05:46:12.241Z,1020.69
2023-02-03T05:47:12.173Z,1020.55
2023-02-03T05:48:12.192Z,1020.62
2023-02-03T05:49:12.172Z,1020.63
2023-02-03T05:50:12.281Z,1020.63
2023-02-03T05:51:12.169Z,1020.59
2023-02-03T05:52:12.155Z,1020.65
2023-02-03T05:53:12.181Z,1020.75
2023-02-03T05:54:12.155Z,1020.75
2023-02-03T05:55:12.160Z,1020.82
2023-02-03T05:56:12.163Z,1020.84
2023-02-03T05:57:12.155Z,1020.81
2023-02-03T05:58:12.167Z,1020.77
2023-02-03T05:59:12.174Z,1020.81
2023-02-03T06:00:12.160Z,1020.75
2023-02-03T06:01:12.199Z,1020.88
2023-02-03T06:02:12.159Z,1020.89
2023-02-03T06:03:12.198Z,1020.89
2023-02-03T06:04:12.280Z,1020.92
2023-02-03T06:05:12.154Z,1020.9
2023-02-03T06:06:12.162Z,1020.9
2023-02-03T06:07:12.156Z,1020.95
2023-02-03T06:08:12.178Z,1020.95
2023-02-03T06:09:12.165Z,1020.89
2023-02-03T06:10:12.160Z,1020.88
2023-02-03T06:11:12.209Z,1020.88
2023-02-03T06:12:12.156Z,1020.95
2023-02-03T06:13:12.158Z,1020.9
2023-02-03T06:14:12.153Z,1020.93
2023-02-03T06:15:12.150Z,1020.91
2023-02-03T06:16:12.233Z,1020.95
2023-02-03T06:17:12.166Z,1020.94
2023-02-03T06:18:12.201Z,1020.99
2023-02-03T06:19:13.213Z,1021.05
2023-02-03T06:20:12.155Z,1020.98
2023-02-03T06:21:12.179Z,1020.89
2023-02-03T06:22:12.159Z,1020.93
2023-02-03T06:23:12.178Z,1020.93
2023-02-03T06:24:12.163Z,1020.89
2023-02-03T06:25:13.239Z,1020.88
2023-02-03T06:26:12.180Z,1020.83
2023-02-03T06:27:12.171Z,1020.8
2023-02-03T06:28:12.206Z,1020.78
2023-02-03T06:29:12.170Z,1020.79
2023-02-03T06:30:12.175Z,1020.75
2023-02-03T06:31:12.276Z,1020.63
2023-02-03T06:32:12.171Z,1020.66
2023-02-03T06:33:12.166Z,1020.65
2023-02-03T06:34:12.155Z,1020.62
2023-02-03T06:35:12.168Z,1020.62
2023-02-03T06:36:12.268Z,1020.64
2023-02-03T06:37:12.172Z,1020.58
2023-02-03T06:38:12.185Z,1020.6
2023-02-03T06:39:12.182Z,1020.52
2023-02-03T06:40:12.161Z,1020.52
2023-02-03T06:41:12.214Z,1020.52
2023-02-03T06:42:12.174Z,1020.55
2023-02-03T06:43:12.172Z,1020.47
2023-02-03T06:44:12.168Z,1020.52
2023-02-03T06:45:12.184Z,1020.48
2023-02-03T06:46:12.225Z,1020.47
2023-02-03T06:47:12.162Z,1020.52
2023-02-03T06:48:12.171Z,1020.54
2023-02-03T06:49:12.170Z,1020.46
2023-02-03T06:50:12.166Z,1020.46
2023-02-03T06:51:12.176Z,1020.45
2023-02-03T06:52:12.164Z,1020.49
2023-02-03T06:53:12.182Z,1020.46
2023-02-03T06:54:12.172Z,1020.41
2023-02-03T06:55:12.204Z,1020.44
2023-02-03T06:56:12.175Z,1020.4
2023-02-03T06:57:12.184Z,1020.33
2023-02-03T06:58:12.191Z,1020.37
2023-02-03T06:59:12.164Z,1020.33
2023-02-03T07:00:13.884Z,1020.33
2023-02-03T07:01:12.238Z,1020.39
2023-02-03T07:02:12.205Z,1020.33
2023-02-03T07:03:12.159Z,1020.36
2023-02-03T07:04:12.159Z,1020.38
2023-02-03T07:05:12.164Z,1020.33
2023-02-03T07:06:12.166Z,1020.34
2023-02-03T07:07:12.155Z,1020.34
2023-02-03T07:08:12.175Z,1020.34
2023-02-03T07:09:12.162Z,1020.37
2023-02-03T07:10:12.162Z,1020.31
2023-02-03T07:11:12.166Z,1020.26
2023-02-03T07:12:12.161Z,1020.24
2023-02-03T07:13:12.159Z,1020.18
2023-02-03T07:14:12.149Z,1020.11
2023-02-03T07:15:12.163Z,1020.14
2023-02-03T07:16:12.228Z,1020.11
2023-02-03T07:17:12.164Z,1020.08
2023-02-03T07:18:14.985Z,1020.1
2023-02-03T07:19:12.168Z,1020.03
2023-02-03T07:20:12.160Z,1019.94
2023-02-03T07:21:12.283Z,1019.9
2023-02-03T07:22:12.160Z,1019.98
2023-02-03T07:23:12.178Z,1019.88
2023-02-03T07:24:12.155Z,1019.81
2023-02-03T07:25:12.156Z,1019.81
2023-02-03T07:26:12.187Z,1019.67
2023-02-03T07:27:12.266Z,1019.67
2023-02-03T07:28:12.232Z,1019.76
2023-02-03T07:29:12.175Z,1019.66
2023-02-03T07:30:12.153Z,1019.65
2023-02-03T07:31:12.301Z,1019.59
2023-02-03T07:32:12.265Z,1019.56
2023-02-03T07:33:12.177Z,1019.54
2023-02-03T07:34:12.171Z,1019.61
2023-02-03T07:35:12.184Z,1019.55
2023-02-03T07:36:12.192Z,1019.58
2023-02-03T07:37:12.164Z,1019.56
2023-02-03T07:38:12.194Z,1019.54
2023-02-03T07:39:12.165Z,1019.67
2023-02-03T07:40:12.160Z,1019.67
2023-02-03T07:41:12.185Z,1019.71
2023-02-03T07:42:12.177Z,1019.68
2023-02-03T07:43:12.174Z,1019.75
2023-02-03T07:44:12.155Z,1019.66
2023-02-03T07:45:12.179Z,1019.67
2023-02-03T07:46:12.263Z,1019.62
2023-02-03T07:47:12.673Z,1019.65
2023-02-03T07:48:12.171Z,1019.64
2023-02-03T07:49:12.171Z,1019.69
2023-02-03T07:50:12.159Z,1019.61
2023-02-03T07:51:12.181Z,1019.59
2023-02-03T07:52:12.174Z,1019.61
2023-02-03T07:53:12.184Z,1019.57
2023-02-03T07:54:12.169Z,1019.55
2023-02-03T07:55:12.238Z,1019.48
2023-02-03T07:56:12.187Z,1019.62
2023-02-03T07:57:12.183Z,1019.55
2023-02-03T07:58:12.243Z,1019.5
2023-02-03T07:59:12.164Z,1019.58
2023-02-03T08:00:12.179Z,1019.51
2023-02-03T08:01:12.204Z,1019.58
2023-02-03T08:02:12.170Z,1019.49
2023-02-03T08:03:12.171Z,1019.42
2023-02-03T08:04:12.164Z,1019.47
2023-02-03T08:05:12.248Z,1019.44
2023-02-03T08:06:12.180Z,1019.5
2023-02-03T08:07:12.168Z,1019.38
2023-02-03T08:08:12.196Z,1019.38
2023-02-03T08:09:12.205Z,1019.36
2023-02-03T08:10:12.152Z,1019.36
2023-02-03T08:11:12.268Z,1019.25
2023-02-03T08:12:12.163Z,1019.25
2023-02-03T08:13:12.167Z,1019.32
2023-02-03T08:14:12.175Z,1019.33
2023-02-03T08:15:12.190Z,1019.3
2023-02-03T08:16:12.229Z,1019.3
2023-02-03T08:17:12.162Z,1019.29
2023-02-03T08:18:12.254Z,1019.29
2023-02-03T08:19:12.396Z,1019.25
2023-02-03T08:20:12.153Z,1019.23
2023-02-03T08:21:12.182Z,1019.21
2023-02-03T08:22:12.154Z,1019.19
2023-02-03T08:23:12.166Z,1019.26
2023-02-03T08:24:12.154Z,1019.23
2023-02-03T08:25:12.149Z,1019.27
2023-02-03T08:26:12.163Z,1019.2
2023-02-03T08:27:12.165Z,1019.27
2023-02-03T08:28:12.219Z,1019.24
2023-02-03T08:29:12.159Z,1019.28
2023-02-03T08:30:12.153Z,1019.25
2023-02-03T08:31:12.400Z,1019.24
2023-02-03T08:32:12.208Z,1019.13
2023-02-03T08:33:12.176Z,1019.16
2023-02-03T08:34:12.147Z,1019.19
2023-02-03T08:35:12.146Z,1019.19
2023-02-03T08:36:12.185Z,1019.18
2023-02-03T08:37:12.166Z,1019.17
2023-02-03T08:38:12.165Z,1019.12
2023-02-03T08:39:12.153Z,1019.12
2023-02-03T08:40:12.153Z,1019.08
2023-02-03T08:41:12.180Z,1019.13
2023-02-03T08:42:12.169Z,1019.12
2023-02-03T08:43:12.149Z,1019.12
2023-02-03T08:44:12.161Z,1019.09
2023-02-03T08:45:12.185Z,1019.13
2023-02-03T08:46:12.338Z,1019.16
2023-02-03T08:47:12.163Z,1019.1
2023-02-03T08:48:12.162Z,1019.11
2023-02-03T08:49:12.165Z,1019.11
2023-02-03T08:50:12.160Z,1019.15
2023-02-03T08:51:12.176Z,1019.08
2023-02-03T08:52:12.182Z,1019.09
2023-02-03T08:53:12.191Z,1019.05
2023-02-03T08:54:12.159Z,1019
2023-02-03T08:55:12.181Z,1019.01
2023-02-03T08:56:12.184Z,1018.97
2023-02-03T08:57:12.177Z,1018.92
2023-02-03T08:58:12.173Z,1018.87
2023-02-03T08:59:12.177Z,1018.83
2023-02-03T09:00:12.161Z,1018.81
2023-02-03T09:01:12.234Z,1018.94
2023-02-03T09:02:12.200Z,1018.8
2023-02-03T09:03:12.147Z,1018.89
2023-02-03T09:04:12.167Z,1018.78
2023-02-03T09:05:12.176Z,1018.83
2023-02-03T09:06:12.188Z,1018.72
2023-02-03T09:07:12.147Z,1018.72
2023-02-03T09:08:12.179Z,1018.72
2023-02-03T09:09:12.155Z,1018.64
2023-02-03T09:10:12.154Z,1018.64
2023-02-03T09:11:12.185Z,1018.62
2023-02-03T09:12:12.168Z,1018.57
2023-02-03T09:13:12.158Z,1018.56
2023-02-03T09:14:12.153Z,1018.54
2023-02-03T09:15:12.186Z,1018.56
2023-02-03T09:16:12.240Z,1018.72
2023-02-03T09:17:12.181Z,1018.39
2023-02-03T09:18:12.183Z,1018.45
2023-02-03T09:19:12.172Z,1018.48
2023-02-03T09:20:12.233Z,1018.48
2023-02-03T09:21:15.956Z,1018.4
2023-02-03T09:22:12.198Z,1018.41
2023-02-03T09:23:12.166Z,1018.38
2023-02-03T09:24:12.157Z,1018.38
2023-02-03T09:25:12.155Z,1018.37
2023-02-03T09:26:12.159Z,1018.28
2023-02-03T09:27:12.152Z,1018.27
2023-02-03T09:28:12.243Z,1018.32
2023-02-03T09:29:12.167Z,1018.31
2023-02-03T09:30:12.169Z,1018.3
2023-02-03T09:31:12.221Z,1018.3
2023-02-03T09:32:14.353Z,1018.18
2023-02-03T09:33:12.149Z,1018.24
2023-02-03T09:34:12.151Z,1018.28
2023-02-03T09:35:12.185Z,1018.25
2023-02-03T09:36:12.189Z,1018.18
2023-02-03T09:37:12.169Z,1018.35
2023-02-03T09:38:12.172Z,1018.2
2023-02-03T09:39:12.155Z,1018.17
2023-02-03T09:40:12.163Z,1018.24
2023-02-03T09:41:12.345Z,1018.07
2023-02-03T09:42:12.164Z,1018.03
2023-02-03T09:43:12.158Z,1018.02
2023-02-03T09:44:12.160Z,1017.9
2023-02-03T09:45:12.150Z,1017.87
2023-02-03T09:46:12.204Z,1017.88
2023-02-03T09:47:12.162Z,1017.86
2023-02-03T09:48:12.157Z,1017.8
2023-02-03T09:49:12.168Z,1017.78
2023-02-03T09:50:12.173Z,1017.73
2023-02-03T09:51:12.163Z,1017.77
2023-02-03T09:52:12.167Z,1017.76
2023-02-03T09:53:12.190Z,1017.72
2023-02-03T09:54:12.164Z,1017.65
2023-02-03T09:55:12.168Z,1017.54
2023-02-03T09:56:12.178Z,1017.53
2023-02-03T09:57:12.174Z,1017.49
2023-02-03T09:58:12.362Z,1017.48
2023-02-03T09:59:12.148Z,1017.59
2023-02-03T10:00:12.180Z,1017.49
2023-02-03T10:01:12.322Z,1017.45
2023-02-03T10:02:12.185Z,1017.68
2023-02-03T10:03:12.165Z,1017.46
2023-02-03T10:04:12.173Z,1017.27
2023-02-03T10:05:12.169Z,1017.27
2023-02-03T10:06:12.172Z,1017.34
2023-02-03T10:07:12.169Z,1017.31
2023-02-03T10:08:12.184Z,1017.31
2023-02-03T10:09:12.184Z,1017.19
2023-02-03T10:10:12.156Z,1017.25
2023-02-03T10:11:12.194Z,1017.2
2023-02-03T10:12:12.175Z,1017.14
2023-02-03T10:13:12.154Z,1016.91
2023-02-03T10:14:12.165Z,1017.08
2023-02-03T10:15:12.167Z,1016.92
2023-02-03T10:16:12.175Z,1016.74
2023-02-03T10:17:12.261Z,1017.07
2023-02-03T10:18:12.167Z,1016.86
2023-02-03T10:19:12.163Z,1016.77
2023-02-03T10:20:12.168Z,1016.77
2023-02-03T10:21:12.230Z,1016.85
2023-02-03T10:22:12.165Z,1016.7
2023-02-03T10:23:12.181Z,1016.66
2023-02-03T10:24:12.174Z,1016.61
2023-02-03T10:25:12.171Z,1016.68
2023-02-03T10:26:12.196Z,1016.66
2023-02-03T10:27:12.158Z,1016.66
2023-02-03T10:28:12.252Z,1016.61
2023-02-03T10:29:12.175Z,1016.63
2023-02-03T10:30:12.159Z,1016.03
2023-02-03T10:31:12.360Z,1016.46
2023-02-03T10:32:12.219Z,1016.5
2023-02-03T10:33:12.161Z,1016.52
2023-02-03T10:34:12.159Z,1016.44
2023-02-03T10:35:12.164Z,1016.33
2023-02-03T10:36:12.190Z,1016.27
2023-02-03T10:37:12.180Z,1016.37
2023-02-03T10:38:12.159Z,1016.47
2023-02-03T10:39:12.152Z,1016.26
2023-02-03T10:40:12.166Z,1016.23
2023-02-03T10:41:12.308Z,1016.27
2023-02-03T10:42:12.164Z,1016.3
2023-02-03T10:43:12.151Z,1016.26
2023-02-03T10:44:12.159Z,1016.25
2023-02-03T10:45:12.151Z,1016.22
2023-02-03T10:46:12.249Z,1016.24
2023-02-03T10:47:12.161Z,1016.07
2023-02-03T10:48:12.154Z,1016.07
2023-02-03T10:49:12.145Z,1016
2023-02-03T10:50:12.170Z,1016.03
2023-02-03T10:51:12.157Z,1015.92
2023-02-03T10:52:12.150Z,1016.07
2023-02-03T10:53:12.163Z,1015.96
2023-02-03T10:54:12.173Z,1015.89
2023-02-03T10:55:13.647Z,1015.97
2023-02-03T10:56:12.274Z,1015.84
2023-02-03T10:57:12.162Z,1015.92
2023-02-03T10:58:12.169Z,1015.96
2023-02-03T10:59:12.167Z,1015.66
2023-02-03T11:00:12.154Z,1016.07
2023-02-03T11:01:12.305Z,1015.89
2023-02-03T11:02:12.172Z,1015.76
2023-02-03T11:03:12.186Z,1015.68
2023-02-03T11:04:12.163Z,1015.6
2023-02-03T11:05:12.168Z,1015.69
2023-02-03T11:06:12.240Z,1015.68
2023-02-03T11:07:12.190Z,1015.72
2023-02-03T11:08:12.188Z,1015.72
2023-02-03T11:09:12.146Z,1015.67
2023-02-03T11:10:12.154Z,1015.76
2023-02-03T11:11:12.183Z,1015.5
2023-02-03T11:12:12.171Z,1015.54
2023-02-03T11:13:12.177Z,1015.49
2023-02-03T11:14:12.174Z,1015.48
2023-02-03T11:15:12.163Z,1015.72
2023-02-03T11:16:12.283Z,1015.55
2023-02-03T11:17:12.177Z,1015.35
2023-02-03T11:18:12.177Z,1015.2
2023-02-03T11:19:12.166Z,1015.49
2023-02-03T11:20:12.162Z,1015.37
2023-02-03T11:21:12.182Z,1015.49
2023-02-03T11:22:12.159Z,1015.35
2023-02-03T11:23:12.168Z,1015.72
2023-02-03T11:24:12.185Z,1015.32
2023-02-03T11:25:12.175Z,1015.16
2023-02-03T11:26:12.236Z,1015.27
2023-02-03T11:27:12.167Z,1015.24
2023-02-03T11:28:12.215Z,1015.2
2023-02-03T11:29:12.215Z,1015.19
2023-02-03T11:30:12.180Z,1015.19
2023-02-03T11:31:12.316Z,1015.14
2023-02-03T11:32:12.216Z,1015.21
2023-02-03T11:33:12.163Z,1014.92
2023-02-03T11:34:12.159Z,1014.84
2023-02-03T11:35:12.162Z,1015.04
2023-02-03T11:36:12.199Z,1015.04
2023-02-03T11:37:12.172Z,1014.85
2023-02-03T11:38:12.176Z,1014.79
2023-02-03T11:39:12.181Z,1014.92
2023-02-03T11:40:12.173Z,1014.92
2023-02-03T11:41:12.174Z,1014.92
2023-02-03T11:42:12.159Z,1015.03
2023-02-03T11:43:12.155Z,1014.99
2023-02-03T11:44:12.154Z,1014.92
2023-02-03T11:45:12.150Z,1015.09
2023-02-03T11:46:12.203Z,1014.75
2023-02-03T11:47:12.157Z,1014.64
2023-02-03T11:48:12.146Z,1014.83
2023-02-03T11:49:12.148Z,1014.85
2023-02-03T11:50:12.161Z,1014.69
2023-02-03T11:51:12.166Z,1014.58
2023-02-03T11:52:12.154Z,1014.8
2023-02-03T11:53:12.166Z,1014.69
2023-02-03T11:54:12.153Z,1014.71
2023-02-03T11:55:12.156Z,1014.68
2023-02-03T11:56:12.170Z,1014.26
2023-02-03T11:57:12.159Z,1014.65
2023-02-03T11:58:12.161Z,1014.26
2023-02-03T11:59:12.159Z,1014.32
2023-02-03T12:00:12.164Z,1014.04
2023-02-03T12:01:12.191Z,1014.55
2023-02-03T12:02:12.159Z,1014.28
2023-02-03T12:03:12.287Z,1014.29
2023-02-03T12:04:12.384Z,1014.14
2023-02-03T12:05:12.178Z,1014.4
2023-02-03T12:06:12.187Z,1014.47
2023-02-03T12:07:12.162Z,1013.65
2023-02-03T12:08:12.189Z,1013.65